Terminal Aerodrome Forecast
Issued by NWS

Home | Current Version | Previous Version | Text Only | Print | Product List | Glossary On
Versions: 1 2 3 4 5 6 7 8 9 10 11 12 13 14 15 16 17 18
000
FTUS46 KPDT 270349 AAA
TAFALW
TAF AMD
KALW 270349Z 2704/2724 07004KT P6SM VCSH FEW015 SCT025 OVC035
      TEMPO 2704/2706 5SM -SHSN BR SCT015 BKN025 OVC030
     FM271000 20006KT 5SM -SHSN BR OVC030
     FM271800 23006KT P6SM VCSH OVC040
     FM272200 22009KT 6SM -SHRA BKN020 OVC040=

USA.gov is the U.S. government's official web portal to all federal, state and local government web resources and services.